Aérodrome :
LOGIN :

S'inscrire | Disclaimer

   EN    FR    IT 

 










Légende :    VFR   VFR Marginal   IFR   IFR Intensif   IFR Très Intensif
Visi : 
Plafond : 
>= 8 km
>= 3000ft
5 à 8 km
1000 à 3000 ft
1500m à 5 km
500 à 1000 ft
800 à 1500m
200 à 500 ft
< 800m
< 200 ft
Symboles :   Orages  Brouillard  Fortes neiges  Fortes précipitations  Vent > 20 kt
SIGMETs :   Divers  Orages  Givrage  Turbulence  Onde Orograph.  Cendres Volcan.






- Altitude de l'aérodrome : 370 ft


EBBE - Beauvechain AB

DERNIER METAR :
  • 090855Z 21013KT 9999 FEW008 BKN010 02/01 Q1003 GRN WHT TEMPO GRN

METARs EXPIRÉS :
  • 090839Z 21014KT 9999 FEW008 SCT010 BKN018 03/01 Q1003 GRN WHT TEMPO GRN
  • 090825Z 21014KT 9999 FEW008 SCT017 BKN020 03/01 Q1003 WHT WHT TEMPO GRN
  • 090755Z 21013KT 9999 FEW008 SCT017 BKN025 02/01 Q1003 WHT WHT TEMPO GRN
  • 090733Z 20013KT 9999 FEW012 SCT017 BKN025 02/01 Q1003 WHT WHT TEMPO GRN
  • 090640Z 20011KT 9999 FEW020 SCT070 BKN110 02/00 Q1003 BLU BLU TEMPO WHT
  • 090625Z 19011KT 9999 FEW020 SCT070 BKN110 02/00 Q1003 BLU BLU

TAF TAF EBBE
Valide du 09 à 10h jusqu'au 09 à 19h UTC


090841Z 0910/0919 22010G20KT 9999 FEW012 BKN025
TEMPO 0910/0913 21015G25KT 6000 -RA FEW007 BKN020
PROB30
TEMPO 0910/0913 2000 RA -RASN SCT005 BKN012
BECMG 0913/0915 FEW015 BKN025
TEMPO 0913/0919 21015G25KT FEW012 BKN020



MET'MAP, la Météo Aéronautique d'un coup d'oeil ! - Copyright ORBIFLY Décembre 2007 - Disclaimer

ORBIFLY MET'MAP TEAM :

Programmation & Développement : Alexandra Zaïnal
Sur une idée originale de : Baudouin d'Aumeries
Assistance à la programmation : Marc-Olivier Méhu
Soutien technique & logistique : Manuel Goepfert

Contact : metmap@orbifly.com




SOURCES & CREDITS :

   NOAA